Cheney, KS

12:18 PM CDT on August 28, 2015 (GMT -0500)
WSU Field Station | | Change Station
CLOSE
Current Station
Personal Weather Station
Location: Viola, KS
Elevation: 1332 ft
Nearby Weather Stations

Elev 1332 ft 37.53 °N, 97.67 °W | Updated 32 seconds ago

Partly Cloudy
Partly Cloudy
84.1 °F
Feels Like 89 °F
N
3.0
Wind Variable Wind from West
Gusts 3.0 mph

Today
High -- | Low -- °F
--% Chance of Precip.
Yesterday
High -- | Low -- °F
Precip. -- in
6:57 AM 8:06 PM
Waxing Gibbous, 98% visible
Pressure 29.91 in
Visibility 10.0 miles
Clouds Scattered Clouds 8500 ft
Scattered Clouds 12000 ft
Scattered Clouds 15000 ft
Scattered Clouds 18000 ft
Heat Index 89 °F
Dew Point 71 °F
Humidity 65%
Rainfall 0.04 in
Snow Depth Not available.
UV 6.9 out of 12
Pollen 8.40 out of 12
Air Quality Not available.
Flu Activity Not available.
METAR KICT 281653Z 19013KT 10SM SCT085 SCT120 SCT150 SCT180 27/19 A2995 RMK AO2 SLP127 T02670194
Pressure 29.91 in
Visibility 10.0 miles
Clouds Scattered Clouds 8500 ft
Scattered Clouds 12000 ft
Scattered Clouds 15000 ft
Scattered Clouds 18000 ft
Heat Index 89 °F
Dew Point 71 °F
Humidity 65%
Rainfall 0.04 in
Snow Depth Not available.
UV 6.9 out of 12
Pollen 8.40 out of 12
Air Quality Not available.
Flu Activity Not available.
METAR KICT 281653Z 19013KT 10SM SCT085 SCT120 SCT150 SCT180 27/19 A2995 RMK AO2 SLP127 T02670194

10-Day Weather Forecast

×

Almanac

Astronomy

Aug. 28, 2015 Rise Set
Actual Time
Civil Twilight
Nautical Twilight
Astronomical Twilight
Moon
Length of Visible Light
Length of Day
Tomorrow will be .
, % of the Moon is Illuminated

Today's Extremes

State Highs State Lows

Community

WunderPhotos

Upload Photos

1,850,438 photos uploaded!

WunderBlogs® & News

Nearby

Air Quality

  Air Quality AQ Index Pollutant
Not available.

Snow Depth

Station Depth Elevation

Earthquake Activity

City Distance Mag. Time & Date
Minimum magnitude displayed is 2.5.

Coastal Water Temperatures

Place Temperature

Stations

Nearby Weather Stations

Station Location Temp. Windchill Dew Point Humidity Wind Precip. Elev Updated Type